Time;durP1;ratioP1;P1;durP2;ratioP2;P2;SDS_P1;SDS_P2;PMS_P1;PMS_P2;Temp;Humidity;BMP_temperature;BMP_pressure;BME280_temperature;BME280_humidity;BME280_pressure;Samples;Min_cycle;Max_cycle;Signal;HPM_P1;HPM_P2
2022/04/16 00:01:47;;;;;;;8.57;6.28;;;3.70;1.00;;;3.23;100.00;99322.28;5000065;28;130529;-72
2022/04/16 00:04:16;;;;;;;9.82;7.22;;;3.70;1.00;;;3.23;100.00;99342.94;5002186;28;129591;-71
2022/04/16 00:06:45;;;;;;;11.15;8.18;;;3.60;1.00;;;3.24;100.00;99326.56;5000336;28;119130;-72
2022/04/16 00:09:14;;;;;;;11.00;7.97;;;3.60;1.00;;;3.13;100.00;99327.63;4999259;28;115048;-70
2022/04/16 00:11:42;;;;;;;9.90;7.47;;;3.60;1.00;;;3.07;100.00;99328.69;4999893;28;130999;-71
2022/04/16 00:14:11;;;;;;;11.18;7.85;;;3.50;1.00;;;3.13;100.00;99333.00;5000066;28;129640;-71
2022/04/16 00:16:39;;;;;;;11.23;8.15;;;3.50;1.00;;;3.14;100.00;99339.97;5000253;28;118770;-73
2022/04/16 00:19:11;;;;;;;10.77;8.20;;;3.50;1.00;;;3.09;100.00;99337.28;5000310;28;115012;-70
2022/04/16 00:21:40;;;;;;;11.68;8.52;;;3.50;1.00;;;3.08;100.00;99335.66;4999813;28;129888;-70
2022/04/16 00:24:08;;;;;;;11.75;8.77;;;3.50;1.00;;;3.14;100.00;99348.00;5000234;28;129570;-72
2022/04/16 00:26:40;;;;;;;11.32;8.68;;;3.50;1.00;;;3.18;100.00;99351.78;5000076;28;119591;-73
2022/04/16 00:29:09;;;;;;;12.50;9.00;;;3.50;1.00;;;3.12;100.00;99352.03;5002455;28;115438;-71
2022/04/16 00:31:38;;;;;;;12.25;9.23;;;3.50;1.00;;;3.09;100.00;99350.69;5000139;28;130155;-70
2022/04/16 00:34:06;;;;;;;13.25;10.10;;;3.50;1.00;;;3.12;100.00;99342.09;5003116;28;129490;-71
2022/04/16 00:36:36;;;;;;;13.70;10.43;;;3.50;1.00;;;3.13;100.00;99354.47;5005430;28;119035;-72
2022/04/16 00:39:04;;;;;;;15.43;10.52;;;3.50;1.00;;;3.24;100.00;99361.44;5003604;28;115910;-71
2022/04/16 00:41:32;;;;;;;15.02;10.23;;;3.50;1.00;;;3.23;100.00;99348.28;5003207;28;129896;-72
2022/04/16 00:44:01;;;;;;;14.63;10.73;;;3.40;1.00;;;3.17;100.00;99349.34;5004732;28;129262;-71
2022/04/16 00:46:29;;;;;;;13.65;10.10;;;3.40;1.00;;;3.16;100.00;99361.16;5002985;28;118960;-72
2022/04/16 00:48:58;;;;;;;12.15;9.50;;;3.50;1.00;;;3.13;100.00;99359.81;5005373;28;114797;-72
2022/04/16 00:51:26;;;;;;;14.30;10.77;;;3.50;1.00;;;3.21;100.00;99356.59;5002935;28;129813;-71
2022/04/16 00:53:56;;;;;;;14.18;10.77;;;3.50;1.00;;;3.23;100.00;99365.19;5004501;28;129386;-71
2022/04/16 00:56:25;;;;;;;15.57;11.43;;;3.50;1.00;;;3.36;100.00;99358.47;5004381;28;118398;-71
2022/04/16 00:58:54;;;;;;;14.20;10.68;;;3.50;1.00;;;3.24;100.00;99357.94;5003155;28;115893;-71
2022/04/16 01:01:22;;;;;;;16.10;11.20;;;3.50;1.00;;;3.19;100.00;99364.09;5002652;28;129554;-70
2022/04/16 01:03:51;;;;;;;16.23;12.02;;;3.50;1.00;;;3.20;100.00;99364.91;5004564;28;129638;-70
2022/04/16 01:06:20;;;;;;;16.27;12.18;;;3.50;1.00;;;3.16;100.00;99375.34;5004530;28;119232;-71
2022/04/16 01:08:48;;;;;;;17.73;12.68;;;3.50;1.00;;;3.19;100.00;99361.41;5003027;28;115830;-70
2022/04/16 01:11:18;;;;;;;15.45;11.15;;;3.50;1.00;;;3.08;100.00;99367.84;5021209;28;129765;-71
2022/04/16 01:13:48;;;;;;;17.67;13.15;;;3.40;1.00;;;3.05;100.00;99363.81;5002704;28;130240;-70
2022/04/16 01:16:16;;;;;;;17.08;12.50;;;3.40;1.00;;;3.09;100.00;99363.28;5004721;28;118736;-70
2022/04/16 01:18:48;;;;;;;19.00;13.93;;;3.40;1.00;;;2.96;100.00;99359.22;5003020;28;116016;-70
2022/04/16 01:21:18;;;;;;;18.30;13.23;;;3.30;1.00;;;3.02;100.00;99368.88;5002268;28;130089;-69
2022/04/16 01:23:47;;;;;;;20.10;13.27;;;3.30;1.00;;;2.85;100.00;99364.56;5004088;28;130011;-69
2022/04/16 01:26:16;;;;;;;23.85;16.08;;;3.30;1.00;;;2.93;100.00;99373.16;5002929;28;119630;-72
2022/04/16 01:28:44;;;;;;;20.50;14.75;;;3.20;15.00;;;2.83;100.00;99361.34;5002729;28;116309;-70
2022/04/16 01:31:13;;;;;;;22.30;15.18;;;3.20;27.30;;;2.89;100.00;99359.47;4987188;28;129780;-70
2022/04/16 01:33:42;;;;;;;24.75;16.38;;;3.10;35.40;;;2.82;100.00;99362.41;5001936;28;129569;-69
2022/04/16 01:36:12;;;;;;;23.08;15.95;;;3.20;52.20;;;2.80;100.00;99361.84;5004232;28;118410;-70
2022/04/16 01:38:40;;;;;;;23.10;15.70;;;3.20;65.30;;;2.79;100.00;99360.25;5002629;28;116114;-70
2022/04/16 01:41:10;;;;;;;21.83;15.27;;;3.20;69.40;;;2.85;100.00;99361.06;5001976;28;130597;-70
2022/04/16 01:43:38;;;;;;;22.90;15.75;;;3.10;73.40;;;2.86;100.00;99365.38;5002923;28;128383;-70
2022/04/16 01:46:07;;;;;;;24.17;16.45;;;3.10;79.10;;;2.80;100.00;99359.19;5002286;28;118858;-70
2022/04/16 01:48:35;;;;;;;21.52;14.43;;;3.10;78.70;;;2.80;100.00;99372.56;5004304;28;115260;-70
2022/04/16 01:51:05;;;;;;;23.50;15.43;;;3.10;76.80;;;2.71;100.00;99379.50;5000764;28;130559;-71
2022/04/16 01:53:33;;;;;;;22.80;14.00;;;3.10;68.50;;;2.67;100.00;99379.22;5001554;28;129199;-71
2022/04/16 01:56:01;;;;;;;19.02;13.43;;;3.10;36.80;;;2.76;100.00;99386.75;5002168;28;118831;-71
2022/04/16 01:58:31;;;;;;;21.08;14.70;;;3.10;28.40;;;2.77;100.00;99393.75;5002305;28;116275;-70
2022/04/16 02:01:00;;;;;;;21.23;14.65;;;3.10;28.10;;;2.86;100.00;99387.59;5001606;28;130233;-71
2022/04/16 02:03:29;;;;;;;19.65;12.85;;;3.10;28.30;;;2.72;100.00;99397.22;5001123;28;129761;-71
2022/04/16 02:05:57;;;;;;;24.40;14.65;;;3.10;18.70;;;2.69;100.00;99393.16;5001907;28;118576;-70
2022/04/16 02:08:27;;;;;;;17.15;12.60;;;3.10;19.20;;;2.68;100.00;99406.84;5004885;28;115898;-70
2022/04/16 02:10:55;;;;;;;20.58;14.05;;;3.10;1.80;;;2.69;100.00;99411.13;5003453;28;129627;-70
2022/04/16 02:13:24;;;;;;;20.42;13.68;;;3.10;5.80;;;2.73;100.00;99408.72;5001342;28;130276;-71
2022/04/16 02:15:56;;;;;;;21.95;14.02;;;3.10;1.70;;;2.67;100.00;99399.88;5002115;28;119043;-69
2022/04/16 02:18:24;;;;;;;20.02;14.18;;;3.10;3.10;;;2.80;100.00;99403.94;5001995;28;116261;-71
2022/04/16 02:20:52;;;;;;;18.65;13.65;;;3.00;3.80;;;2.77;100.00;99405.25;5002980;28;129427;-71
2022/04/16 02:23:21;;;;;;;18.65;13.52;;;3.10;1.00;;;2.76;100.00;99403.66;5001275;28;130784;-72
2022/04/16 02:25:51;;;;;;;18.38;12.85;;;3.10;1.00;;;2.77;100.00;99399.91;5001825;28;119599;-72
2022/04/16 02:28:20;;;;;;;18.45;13.27;;;3.10;1.00;;;2.71;100.00;99409.00;5001974;28;116310;-72
2022/04/16 02:30:49;;;;;;;17.25;12.50;;;3.00;1.00;;;2.78;100.00;99424.84;5004495;28;129486;-73
2022/04/16 02:33:19;;;;;;;17.17;11.98;;;3.10;1.00;;;2.76;100.00;99417.06;5001238;28;129866;-72
2022/04/16 02:35:48;;;;;;;18.02;12.75;;;3.10;1.00;;;2.81;100.00;99425.13;5003578;28;118685;-71
2022/04/16 02:38:18;;;;;;;16.70;11.98;;;3.10;1.00;;;2.83;100.00;99422.97;5003762;28;115511;-72
2022/04/16 02:40:48;;;;;;;17.77;12.15;;;3.10;1.00;;;2.83;100.00;99425.66;4999794;28;130608;-71
2022/04/16 02:43:16;;;;;;;15.40;12.02;;;3.10;1.00;;;2.81;100.00;99430.47;5002560;28;128378;-71
2022/04/16 02:48:33;;;;;;;15.93;11.60;;;3.20;1.00;;;2.83;100.00;99436.38;5001283;28;116546;-71
2022/04/16 02:51:02;;;;;;;13.75;10.57;;;3.20;1.00;;;2.93;100.00;99442.84;5000958;28;130107;-71
2022/04/16 02:53:32;;;;;;;15.90;10.95;;;3.20;1.00;;;2.99;100.00;99444.50;5000979;28;129435;-73
2022/04/16 02:56:00;;;;;;;15.65;11.07;;;3.20;1.00;;;2.95;100.00;99443.41;5000167;28;119246;-72
2022/04/16 02:58:29;;;;;;;15.60;11.45;;;3.20;1.00;;;2.94;100.00;99447.16;5001132;28;115892;-70
2022/04/16 03:00:57;;;;;;;15.32;10.90;;;3.20;1.00;;;2.97;100.00;99446.63;5000894;28;130893;-72
2022/04/16 03:03:26;;;;;;;15.75;11.02;;;3.20;1.00;;;3.00;100.00;99449.59;5002657;28;129197;-70
2022/04/16 03:05:56;;;;;;;14.48;10.18;;;3.20;1.00;;;3.06;100.00;99456.59;5001147;28;119588;-71
2022/04/16 03:08:25;;;;;;;16.90;11.10;;;3.20;1.00;;;3.05;100.00;99454.16;4999508;28;115527;-70
2022/04/16 03:10:54;;;;;;;14.00;10.82;;;3.20;1.00;;;3.02;100.00;99455.50;5000615;28;130438;-71
2022/04/16 03:13:23;;;;;;;14.20;10.50;;;3.20;1.00;;;3.11;100.00;99461.16;5002551;28;129833;-71
2022/04/16 03:18:38;;;;;;;14.47;10.40;;;3.20;1.00;;;2.97;100.00;99458.16;5001055;28;116193;-71
2022/04/16 03:21:08;;;;;;;12.85;9.98;;;3.10;1.00;;;2.94;100.00;99463.25;5000570;28;130565;-72
2022/04/16 03:23:37;;;;;;;12.80;9.50;;;3.10;1.00;;;2.91;99.95;99463.75;5002485;28;128292;-72
2022/04/16 03:26:06;;;;;;;12.82;9.40;;;3.10;1.00;;;2.85;100.00;99466.44;5000890;28;119003;-72
2022/04/16 03:28:36;;;;;;;11.77;8.93;;;3.10;1.00;;;2.98;100.00;99472.38;5002895;28;114321;-71
2022/04/16 03:31:07;;;;;;;13.05;9.57;;;3.10;1.00;;;2.83;99.70;99476.59;5002349;28;130344;-71
2022/04/16 03:33:36;;;;;;;15.07;9.57;;;3.10;1.00;;;2.85;99.57;99471.78;5000539;28;130231;-71
2022/04/16 03:36:07;;;;;;;12.05;9.27;;;3.10;1.00;;;3.05;99.07;99478.28;5002696;28;118388;-71
2022/04/16 03:38:36;;;;;;;13.65;9.90;;;3.10;1.00;;;2.99;98.95;99472.13;5000992;28;115187;-71
2022/04/16 03:41:05;;;;;;;11.30;8.48;;;3.10;1.00;;;3.04;98.08;99485.53;5002131;28;128639;-71
2022/04/16 03:43:34;;;;;;;12.93;9.63;;;3.10;1.00;;;2.99;98.27;99485.53;5001687;28;129306;-71
2022/04/16 03:46:02;;;;;;;14.80;8.80;;;3.10;1.00;;;3.06;98.31;99496.00;5000672;28;119746;-71
2022/04/16 03:48:31;;;;;;;11.82;8.45;;;3.10;1.00;;;3.09;97.76;99497.38;5000727;28;115587;-71
2022/04/16 03:50:59;;;;;;;11.20;7.70;;;3.20;1.00;;;3.02;97.13;99494.91;5000298;28;129700;-71
2022/04/16 03:53:31;;;;;;;9.57;7.43;;;3.20;1.00;;;2.99;96.82;99508.84;4999877;28;130256;-72
2022/04/16 04:01:40;;;;;;;9.95;7.05;;;3.10;1.00;;;2.91;95.67;99512.81;4988969;28;130005;-71
2022/04/16 04:04:10;;;;;;;9.43;6.75;;;3.10;1.00;;;2.75;95.89;99511.94;5000247;28;129872;-72
2022/04/16 04:06:40;;;;;;;10.77;7.18;;;3.00;1.00;;;2.87;96.24;99512.53;5003492;28;118224;-71
2022/04/16 04:09:09;;;;;;;10.82;7.47;;;3.10;1.00;;;2.75;96.51;99519.97;5004312;28;116051;-72
2022/04/16 04:11:39;;;;;;;11.40;7.43;;;3.00;1.00;;;2.63;97.53;99522.03;5005269;28;129289;-71
2022/04/16 04:14:07;;;;;;;11.45;7.57;;;3.00;1.00;;;2.82;96.50;99520.56;5002141;28;130668;-71
2022/04/16 04:16:36;;;;;;;9.60;6.93;;;3.00;1.00;;;2.95;96.13;99519.28;5003532;28;118839;-70
2022/04/16 04:19:05;;;;;;;9.52;6.50;;;3.00;1.00;;;2.81;95.66;99521.63;5003911;28;115100;-72
2022/04/16 04:21:33;;;;;;;9.43;6.43;;;3.00;1.00;;;2.86;95.41;99527.00;5003230;28;130622;-70
2022/04/16 04:24:01;;;;;;;12.13;6.95;;;3.10;1.00;;;2.83;94.58;99527.50;5003510;28;129777;-72
2022/04/16 04:26:31;;;;;;;11.48;6.53;;;3.00;1.00;;;2.85;94.34;99546.03;5003259;28;118650;-71
2022/04/16 04:29:00;;;;;;;11.25;6.75;;;3.10;1.00;;;2.79;95.11;99542.53;5003889;28;114978;-71
2022/04/16 04:31:28;;;;;;;9.65;6.60;;;3.10;1.00;;;2.88;95.40;99548.19;5003061;28;130544;-71
2022/04/16 04:33:57;;;;;;;9.90;6.57;;;3.10;1.00;;;2.86;95.80;99551.13;5002638;28;129624;-72
2022/04/16 04:36:26;;;;;;;8.40;6.63;;;3.10;1.00;;;2.91;96.40;99549.53;5020979;28;118668;-70
2022/04/16 04:38:54;;;;;;;10.38;6.82;;;3.10;1.00;;;2.92;95.46;99556.53;5003742;28;115002;-71
2022/04/16 04:41:23;;;;;;;9.65;6.78;;;3.10;1.00;;;2.87;95.39;99554.63;5003117;28;130446;-70
2022/04/16 04:43:53;;;;;;;9.25;6.55;;;3.10;1.00;;;2.94;96.12;99554.38;4988067;28;129592;-70
2022/04/16 04:46:21;;;;;;;8.95;6.35;;;3.10;1.00;;;2.93;95.73;99548.22;5004926;28;117722;-71
2022/04/16 04:48:50;;;;;;;9.63;5.53;;;3.00;1.00;;;2.97;94.97;99554.66;5003577;28;115202;-72
2022/04/16 04:51:19;;;;;;;8.73;6.00;;;3.10;1.00;;;2.98;94.89;99555.50;5004675;28;128702;-71
2022/04/16 04:53:47;;;;;;;9.55;5.90;;;3.10;1.00;;;2.98;95.46;99558.19;5004862;28;129851;-71
2022/04/16 04:56:16;;;;;;;8.63;5.85;;;3.10;1.00;;;2.96;95.42;99557.59;5004801;28;117601;-71
2022/04/16 04:58:44;;;;;;;8.85;6.28;;;3.10;1.00;;;3.04;95.43;99573.22;5006289;28;115812;-71
2022/04/16 05:01:14;;;;;;;8.70;5.82;;;3.10;1.00;;;3.11;95.60;99571.09;5002678;28;130176;-72
2022/04/16 05:03:43;;;;;;;7.38;5.13;;;3.10;1.00;;;2.96;94.96;99571.00;5004644;28;128612;-70
2022/04/16 05:06:11;;;;;;;8.60;5.22;;;3.10;1.00;;;3.02;94.68;99573.50;5003021;28;120264;-70
2022/04/16 05:08:39;;;;;;;8.18;5.15;;;3.10;1.00;;;2.94;95.37;99571.28;5003047;28;114961;-72
2022/04/16 05:11:08;;;;;;;7.80;4.88;;;3.10;1.00;;;2.97;93.72;99575.31;5002599;28;130419;-72
2022/04/16 05:13:37;;;;;;;7.07;4.80;;;3.00;1.00;;;2.95;92.40;99566.75;5004654;28;128875;-72
2022/04/16 05:16:07;;;;;;;6.93;4.82;;;3.10;1.00;;;2.91;93.00;99581.72;5002834;28;118595;-71
2022/04/16 05:18:37;;;;;;;6.85;4.40;;;3.10;1.00;;;2.91;92.08;99576.34;5004211;28;114721;-69
2022/04/16 05:21:06;;;;;;;7.20;3.80;;;3.10;1.00;;;2.87;91.31;99576.88;4987835;28;130056;-72
2022/04/16 05:23:35;;;;;;;6.22;4.03;;;3.10;1.00;;;2.98;91.46;99575.06;5002444;28;131081;-71
2022/04/16 05:26:04;;;;;;;7.32;4.45;;;3.10;1.00;;;2.95;92.11;99582.81;5002831;28;119116;-72
2022/04/16 05:28:32;;;;;;;6.20;4.22;;;3.10;1.00;;;2.87;92.04;99581.44;5002791;28;115659;-71
2022/04/16 05:31:01;;;;;;;6.25;3.85;;;3.10;1.00;;;2.87;91.12;99587.59;5002362;28;130010;-72
2022/04/16 05:36:18;;;;;;;6.18;3.30;;;3.20;1.00;;;3.16;89.50;99589.91;5004838;28;118445;-75
2022/04/16 05:38:47;;;;;;;6.10;3.70;;;3.20;1.00;;;3.14;89.52;99586.69;5005050;28;115408;-73
2022/04/16 05:41:16;;;;;;;5.50;3.15;;;3.20;1.00;;;3.11;89.59;99587.19;5001886;28;130686;-79
2022/04/16 05:43:44;;;;;;;6.10;3.20;;;3.20;1.00;;;2.89;90.57;99584.66;5004199;28;129457;-76
2022/04/16 05:46:13;;;;;;;5.95;3.63;;;3.20;1.00;;;2.95;91.09;99585.50;5004397;28;118321;-76
2022/04/16 05:48:41;;;;;;;6.38;3.92;;;3.20;1.00;;;3.02;90.10;99583.38;5002560;28;116263;-73
2022/04/16 05:51:11;;;;;;;5.35;3.15;;;3.20;1.00;;;3.05;90.46;99588.22;4999545;28;129701;-75
2022/04/16 05:53:41;;;;;;;5.22;3.63;;;3.30;1.00;;;3.13;89.61;99592.31;5004590;28;128135;-74
2022/04/16 05:56:11;;;;;;;9.70;5.50;;;3.30;1.00;;;3.35;89.18;99586.78;4997949;28;118727;-75
2022/04/16 05:58:39;;;;;;;14.18;7.00;;;3.40;1.00;;;3.38;89.64;99586.25;5004566;28;115269;-74
2022/04/16 06:01:09;;;;;;;9.32;5.28;;;3.40;1.00;;;3.47;87.21;99602.66;5003046;28;129507;-75
2022/04/16 06:03:39;;;;;;;12.93;7.43;;;3.40;1.00;;;3.39;88.52;99594.03;5002050;28;130134;-74
2022/04/16 06:06:08;;;;;;;7.10;4.53;;;3.40;1.00;;;3.57;88.79;99587.41;5001554;28;118869;-74
2022/04/16 06:08:36;;;;;;;7.72;4.15;;;3.50;1.00;;;3.58;86.66;99596.25;5001897;28;115215;-72
2022/04/16 06:11:07;;;;;;;5.05;3.35;;;3.40;1.00;;;3.39;87.66;99590.56;5001602;28;130348;-77
2022/04/16 06:13:35;;;;;;;9.50;5.05;;;3.40;1.00;;;3.39;88.33;99598.59;5003530;28;128651;-76
2022/04/16 06:16:06;;;;;;;10.73;5.05;;;3.40;1.00;;;3.46;87.65;99593.81;5001020;28;119219;-76
2022/04/16 06:18:34;;;;;;;7.13;4.28;;;3.40;1.00;;;3.56;88.03;99593.84;5001941;28;115705;-70
2022/04/16 06:21:02;;;;;;;9.20;5.22;;;3.40;1.00;;;3.66;88.11;99597.63;5001274;28;129812;-77
2022/04/16 06:23:31;;;;;;;7.30;4.43;;;3.50;1.00;;;3.73;87.57;99592.84;5001560;28;129493;-74
2022/04/16 06:26:00;;;;;;;5.57;3.50;;;3.50;1.00;;;3.53;87.51;99605.09;4999690;28;119682;-77
2022/04/16 06:28:30;;;;;;;7.85;4.85;;;3.50;1.00;;;3.84;86.68;99615.97;5001745;28;118936;-66
2022/04/16 06:30:58;;;;;;;8.07;4.50;;;3.60;1.00;;;3.80;85.63;99612.19;4999746;28;130047;-73
2022/04/16 06:33:27;;;;;;;5.07;3.58;;;3.60;1.00;;;3.94;85.04;99621.38;5000161;28;129722;-76
2022/04/16 06:35:55;;;;;;;6.03;2.88;;;3.70;1.00;;;4.27;83.12;99619.28;4997962;28;122602;-75
2022/04/16 06:38:24;;;;;;;4.53;3.05;;;3.90;1.00;;;4.26;81.60;99617.66;5000296;28;122740;-74
2022/04/16 06:40:53;;;;;;;6.22;3.40;;;4.10;1.00;;;4.70;79.53;99626.28;5018706;28;130719;-73
2022/04/16 06:43:21;;;;;;;7.10;3.75;;;4.20;1.00;;;4.66;80.15;99620.66;5001276;28;129673;-73
2022/04/16 06:45:54;;;;;;;5.10;3.03;;;4.20;1.00;;;4.48;80.37;99638.13;4999606;28;119519;-72
2022/04/16 06:48:22;;;;;;;8.88;4.78;;;4.20;1.00;;;4.74;79.74;99622.81;5001713;28;119573;-75
2022/04/16 06:50:51;;;;;;;12.25;5.38;;;4.20;1.00;;;5.06;77.57;99618.19;4999426;28;129789;-78
2022/04/16 06:53:19;;;;;;;5.07;3.00;;;4.30;1.00;;;4.67;78.27;99625.78;5000272;28;129573;-73
2022/04/16 06:55:48;;;;;;;8.50;4.55;;;4.20;1.00;;;4.98;79.85;99620.34;4999146;28;119712;-74
2022/04/16 06:58:18;;;;;;;8.93;3.90;;;4.50;1.00;;;5.28;78.38;99626.75;4999794;28;119486;-70
2022/04/16 07:00:46;;;;;;;9.30;4.93;;;4.50;1.00;;;5.26;79.50;99634.28;4998110;28;129801;-75
2022/04/16 07:03:16;;;;;;;6.68;3.88;;;4.60;1.00;;;5.39;78.40;99639.13;4998215;28;130300;-71
2022/04/16 07:05:44;;;;;;;6.53;3.78;;;4.70;1.00;;;5.08;77.64;99637.56;5000714;28;118786;-73
2022/04/16 07:08:12;;;;;;;10.55;5.18;;;4.50;1.00;;;5.04;78.25;99632.72;5001354;28;118646;-73
2022/04/16 07:10:41;;;;;;;5.28;3.10;;;4.50;1.00;;;4.88;78.21;99633.81;4984648;28;129612;-73
2022/04/16 07:13:09;;;;;;;11.65;6.38;;;4.50;1.00;;;6.28;75.60;99629.59;4999390;28;130126;-73
2022/04/16 07:15:38;;;;;;;5.93;2.92;;;5.20;1.00;;;5.91;73.36;99645.09;4983475;28;119668;-69
2022/04/16 07:18:07;;;;;;;4.82;3.42;;;5.20;1.00;;;5.33;73.95;99640.22;4999617;28;119663;-70
2022/04/16 07:20:37;;;;;;;4.55;2.90;;;5.00;1.00;;;4.85;78.37;99645.13;4999123;28;129978;-72
2022/04/16 07:23:05;;;;;;;3.90;2.33;;;4.70;1.00;;;4.39;76.23;99642.41;4997737;28;129389;-74
2022/04/16 07:25:35;;;;;;;5.07;3.03;;;4.40;1.00;;;4.61;77.27;99645.66;4997147;28;122089;-75
2022/04/16 07:28:04;;;;;;;5.30;3.10;;;4.50;1.00;;;4.98;77.15;99658.00;4998976;28;121816;-76
2022/04/16 07:30:32;;;;;;;4.88;2.72;;;4.70;1.00;;;5.09;74.80;99660.69;4998930;28;129596;-69
2022/04/16 07:33:00;;;;;;;4.47;2.72;;;4.60;1.00;;;5.26;75.29;99650.44;4998849;28;129338;-74
2022/04/16 07:35:29;;;;;;;4.43;2.67;;;4.80;1.00;;;5.21;73.71;99666.59;4998592;28;119947;-73
2022/04/16 07:37:59;;;;;;;3.78;2.42;;;4.70;1.00;;;5.06;73.72;99656.66;4999164;28;120458;-72
2022/04/16 07:40:28;;;;;;;4.25;2.80;;;4.80;1.00;;;5.43;72.00;99662.78;4998764;28;129801;-74
2022/04/16 07:42:57;;;;;;;4.20;2.80;;;4.90;1.00;;;5.01;73.76;99660.16;5000734;28;129241;-76
2022/04/16 07:45:26;;;;;;;3.30;1.98;;;4.80;1.00;;;4.90;71.90;99663.94;4999570;28;119742;-75
2022/04/16 07:47:55;;;;;;;5.20;3.72;;;4.70;1.00;;;5.27;71.34;99656.66;5009555;28;119356;-71
2022/04/16 07:50:23;;;;;;;4.15;2.30;;;4.90;1.00;;;5.52;71.59;99666.53;4997665;28;129732;-72
2022/04/16 07:52:52;;;;;;;3.50;2.35;;;5.10;1.00;;;5.70;70.21;99659.72;4998594;28;129333;-73
2022/04/16 07:55:22;;;;;;;4.95;2.80;;;5.20;1.00;;;6.26;68.64;99646.03;4998871;28;120466;-73
2022/04/16 07:57:50;;;;;;;4.70;2.90;;;5.60;1.00;;;6.42;70.04;99649.44;4997958;28;120388;-72
2022/04/16 08:00:19;;;;;;;8.85;4.30;;;5.70;1.00;;;5.87;71.70;99659.41;4998600;28;130284;-70
2022/04/16 08:02:47;;;;;;;4.63;2.88;;;5.40;1.00;;;5.90;72.75;99666.94;5000493;28;129208;-71
2022/04/16 08:05:15;;;;;;;6.53;3.53;;;5.40;1.00;;;5.25;73.32;99661.47;4999168;28;119305;-75
2022/04/16 08:07:45;;;;;;;6.00;3.53;;;4.90;1.00;;;4.83;74.94;99679.53;4999505;28;120061;-74
2022/04/16 08:10:15;;;;;;;7.13;3.88;;;4.70;1.00;;;4.83;75.17;99660.69;4998657;28;130983;-72
2022/04/16 08:12:45;;;;;;;5.47;2.90;;;4.50;1.00;;;4.59;75.33;99674.66;4998890;28;129624;-71
2022/04/16 08:15:13;;;;;;;8.05;4.40;;;4.50;1.00;;;5.15;75.18;99667.69;4997687;28;122294;-71
2022/04/16 08:17:43;;;;;;;4.88;2.60;;;4.80;1.00;;;4.89;72.09;99673.06;4997917;28;122257;-70
2022/04/16 08:20:13;;;;;;;7.75;2.80;;;4.60;1.00;;;4.93;72.25;99681.44;5000750;28;129642;-72
2022/04/16 08:22:46;;;;;;;4.63;2.80;;;4.70;1.00;;;4.97;73.28;99677.09;4998572;28;129568;-76
2022/04/16 08:28:05;;;;;;;5.03;2.67;;;5.00;1.00;;;4.94;72.34;99678.47;4997515;28;120465;-74
2022/04/16 08:30:34;;;;;;;5.28;3.10;;;4.80;1.00;;;5.08;71.73;99689.50;4997321;28;130604;-70
2022/04/16 08:33:03;;;;;;;4.63;3.08;;;4.80;1.00;;;5.46;71.68;99687.28;4999259;28;130038;-75
2022/04/16 08:35:32;;;;;;;5.10;3.33;;;5.00;1.00;;;5.37;72.38;99688.91;4998807;28;120112;-70
2022/04/16 08:38:01;;;;;;;5.63;3.40;;;4.90;1.00;;;5.90;71.75;99680.41;4993500;28;118785;-73
2022/04/16 08:40:29;;;;;;;4.60;3.08;;;5.30;1.00;;;5.86;70.69;99685.53;4987303;28;129915;-69
2022/04/16 08:42:58;;;;;;;4.97;3.35;;;5.20;1.00;;;5.55;71.07;99684.84;4998457;28;129617;-71
2022/04/16 08:45:35;;;;;;;4.72;3.15;;;5.20;1.00;;;5.39;71.90;99687.56;4997842;28;119722;-72
2022/04/16 08:48:04;;;;;;;5.82;3.30;;;5.00;1.00;;;5.23;71.89;99688.66;4998129;28;119459;-73
2022/04/16 08:50:33;;;;;;;4.95;3.40;;;4.80;1.00;;;5.66;72.39;99697.19;4997225;28;130270;-71
2022/04/16 08:53:03;;;;;;;5.55;3.40;;;5.10;1.00;;;6.67;69.79;99688.09;4997213;28;130267;-70
2022/04/16 08:55:32;;;;;;;5.35;3.40;;;5.70;1.00;;;6.71;67.15;99683.75;5001367;28;120282;-71
2022/04/16 08:58:01;;;;;;;5.70;3.10;;;5.90;1.00;;;7.27;67.07;99684.38;5001532;28;119774;-69
2022/04/16 09:00:31;;;;;;;4.40;2.88;;;6.10;1.00;;;7.17;63.58;99680.66;5000634;28;129974;-69
2022/04/16 09:03:03;;;;;;;4.90;3.78;;;6.30;1.00;;;6.42;64.48;99673.69;4999509;28;130077;-71
2022/04/16 09:05:32;;;;;;;4.22;2.75;;;5.90;1.00;;;6.28;68.18;99673.50;4998751;28;122436;-71
2022/04/16 09:08:02;;;;;;;4.88;2.67;;;5.70;1.00;;;5.81;67.29;99679.34;4986130;28;121905;-69
2022/04/16 09:10:32;;;;;;;7.13;3.10;;;5.50;1.00;;;5.62;68.39;99682.66;4995216;28;131385;-73
2022/04/16 09:13:03;;;;;;;4.72;3.08;;;5.40;1.00;;;5.79;68.98;99682.31;4987414;28;129379;-71
2022/04/16 09:15:35;;;;;;;5.47;2.75;;;5.60;1.00;;;5.67;68.21;99688.03;5000236;28;119994;-70
2022/04/16 09:18:06;;;;;;;10.02;5.50;;;5.40;1.00;;;6.24;67.36;99685.13;4984672;28;119302;-73
2022/04/16 09:20:36;;;;;;;6.60;3.58;;;5.60;1.00;;;5.87;67.84;99697.91;5001805;28;129251;-67
2022/04/16 09:23:19;;;;;;;5.05;3.45;;;5.50;1.00;;;5.14;68.10;99711.78;5000292;28;129470;-69
2022/04/16 09:25:48;;;;;;;8.82;5.07;;;5.20;1.00;;;5.10;68.95;99694.59;4999762;28;120363;-72
2022/04/16 09:28:19;;;;;;;5.60;2.65;;;5.00;1.00;;;4.76;70.17;99719.34;5000028;28;119628;-68
2022/04/16 09:30:55;;;;;;;6.78;3.33;;;4.80;1.00;;;4.83;71.38;99719.84;4998233;28;129789;-69
2022/04/16 09:33:25;;;;;;;4.80;3.10;;;4.70;1.00;;;4.71;71.73;99705.88;4999021;28;129496;-70
2022/04/16 09:35:57;;;;;;;6.50;3.88;;;4.60;1.00;;;4.67;73.03;99714.50;4999574;28;120151;-70
2022/04/16 09:38:30;;;;;;;5.43;3.13;;;4.60;1.00;;;4.45;73.79;99705.84;5000037;28;120483;-71
2022/04/16 09:41:06;;;;;;;7.47;3.80;;;4.60;1.00;;;4.63;72.66;99718.78;5001727;28;129040;-67
2022/04/16 09:43:38;;;;;;;5.65;2.60;;;4.60;1.00;;;4.91;71.06;99713.97;5001376;28;129383;-70
2022/04/16 09:46:12;;;;;;;6.45;3.75;;;4.80;1.00;;;5.54;68.68;99732.47;4998411;28;120347;-67
2022/04/16 09:48:40;;;;;;;3.80;2.63;;;5.20;1.00;;;5.89;66.81;99727.25;5000165;28;119495;-66
2022/04/16 09:51:09;;;;;;;6.10;3.45;;;5.30;1.00;;;6.35;64.34;99724.41;4997607;28;129829;-70
2022/04/16 09:53:40;;;;;;;6.22;3.20;;;5.60;1.00;;;6.36;65.20;99728.72;5001287;28;130707;-70
2022/04/16 09:56:12;;;;;;;4.13;2.67;;;5.50;1.00;;;5.75;65.82;99732.44;4999482;28;121881;-69
2022/04/16 09:58:44;;;;;;;6.70;3.53;;;5.30;1.00;;;5.73;67.82;99735.41;4999370;28;121688;-70
2022/04/16 10:01:16;;;;;;;4.88;3.22;;;5.20;1.00;;;5.60;69.23;99730.59;4999078;28;130979;-70
2022/04/16 10:03:47;;;;;;;5.88;3.15;;;5.20;1.00;;;5.56;67.78;99740.28;5017732;28;128633;-68
2022/04/16 10:06:16;;;;;;;4.60;3.35;;;5.10;1.00;;;5.51;67.85;99737.59;5001191;28;118251;-71
2022/04/16 10:08:46;;;;;;;4.28;2.63;;;5.20;1.00;;;5.21;67.47;99748.13;4997509;28;120678;-70
2022/04/16 10:11:20;;;;;;;5.43;2.47;;;5.00;1.00;;;5.52;67.38;99760.75;4981713;28;130080;-69
2022/04/16 10:14:06;;;;;;;7.47;2.58;;;5.20;1.00;;;5.31;68.30;99755.38;4999807;28;129369;-68
2022/04/16 10:16:48;;;;;;;6.32;3.35;;;5.00;1.00;;;5.32;69.25;99750.81;4999697;28;119885;-66
2022/04/16 10:19:17;;;;;;;3.85;2.53;;;5.10;1.00;;;5.65;68.09;99744.03;4998683;28;119720;-69
2022/04/16 10:21:45;;;;;;;4.60;3.17;;;5.30;1.00;;;6.48;65.23;99749.94;4998928;28;129398;-74
2022/04/16 10:24:24;;;;;;;4.13;2.60;;;5.80;1.00;;;6.53;64.36;99751.81;4998751;28;130185;-71
2022/04/16 10:27:05;;;;;;;3.85;2.50;;;5.60;1.00;;;6.44;65.35;99741.63;4999847;28;120000;-71
2022/04/16 10:29:38;;;;;;;5.65;2.97;;;5.70;1.00;;;6.79;63.76;99739.81;5000216;28;118482;-69
2022/04/16 10:32:38;;;;;;;3.20;2.10;;;5.80;1.00;;;6.39;64.40;99746.22;4998937;28;130059;-71
2022/04/16 10:35:13;;;;;;;8.85;2.88;;;5.70;1.00;;;6.70;64.92;99746.88;4998223;28;130911;-70
2022/04/16 10:37:47;;;;;;;4.70;2.90;;;5.80;1.00;;;6.69;65.28;99756.03;4998978;28;120162;-71
2022/04/16 10:40:18;;;;;;;4.25;2.20;;;5.90;1.00;;;6.54;63.81;99764.22;5000667;28;119039;-68
2022/04/16 10:42:51;;;;;;;3.70;2.40;;;5.90;1.00;;;6.81;63.22;99748.41;4998773;28;129697;-69
2022/04/16 10:45:20;;;;;;;5.30;2.42;;;6.00;1.00;;;6.83;64.22;99751.63;4998593;28;129982;-71
2022/04/16 10:47:54;;;;;;;4.95;2.70;;;6.10;1.00;;;7.10;64.23;99757.66;4999270;28;121646;-72
2022/04/16 10:50:25;;;;;;;6.10;2.88;;;6.20;1.00;;;6.92;63.40;99748.31;4998223;28;122379;-72
2022/04/16 10:52:56;;;;;;;4.63;2.90;;;5.80;1.00;;;6.66;64.76;99749.31;5000788;28;129057;-70